Time;durP1;ratioP1;P1;durP2;ratioP2;P2;SDS_P1;SDS_P2;PMS_P1;PMS_P2;Temp;Humidity;BMP_temperature;BMP_pressure;BME280_temperature;BME280_humidity;BME280_pressure;Samples;Min_cycle;Max_cycle;Signal;HPM_P1;HPM_P2
2021/07/02 00:01:41;;;;;;;;;;;12.50;99.90;;;;;;4997711;28;19937;-83
2021/07/02 00:04:06;;;;;;;;;;;12.50;99.90;;;;;;5015181;28;19910;-83
2021/07/02 00:06:32;;;;;;;;;;;12.50;99.90;;;;;;5015105;28;19916;-83
2021/07/02 00:08:58;;;;;;;;;;;12.50;99.90;;;;;;4996720;28;20012;-83
2021/07/02 00:11:23;;;;;;;;;;;12.50;99.90;;;;;;4997624;28;20279;-83
2021/07/02 00:13:49;;;;;;;;;;;12.50;99.90;;;;;;5014971;28;20288;-83
2021/07/02 00:16:14;;;;;;;;;;;12.50;99.90;;;;;;4996958;28;19949;-83
2021/07/02 00:18:40;;;;;;;;;;;12.50;99.90;;;;;;5014935;28;19914;-83
2021/07/02 00:21:05;;;;;;;;;;;12.50;99.90;;;;;;5014800;28;19910;-84
2021/07/02 00:23:31;;;;;;;;;;;12.50;99.90;;;;;;5014748;28;20001;-83
2021/07/02 00:25:56;;;;;;;;;;;12.50;99.90;;;;;;5014939;28;20008;-83
2021/07/02 00:28:22;;;;;;;;;;;12.50;99.90;;;;;;4997324;28;19910;-83
2021/07/02 00:30:48;;;;;;;;;;;12.50;99.90;;;;;;4997234;28;19917;-82
2021/07/02 00:33:14;;;;;;;;;;;12.50;99.90;;;;;;5014937;28;20008;-83
2021/07/02 00:35:41;;;;;;;;;;;12.50;99.90;;;;;;4997613;28;20411;-83
2021/07/02 00:38:07;;;;;;;;;;;12.50;99.90;;;;;;4997310;28;19964;-83
2021/07/02 00:40:32;;;;;;;;;;;12.50;99.90;;;;;;5014995;28;19914;-83
2021/07/02 00:42:58;;;;;;;;;;;12.50;99.90;;;;;;4997179;28;19916;-83
2021/07/02 00:45:23;;;;;;;;;;;12.50;99.90;;;;;;4996995;28;20249;-83
2021/07/02 00:47:49;;;;;;;;;;;12.60;99.90;;;;;;5014322;28;19917;-83
2021/07/02 00:50:15;;;;;;;;;;;12.60;99.90;;;;;;5014995;28;19991;-83
2021/07/02 00:52:41;;;;;;;;;;;12.60;99.90;;;;;;4993548;28;19949;-83
2021/07/02 00:55:07;;;;;;;;;;;12.60;99.90;;;;;;5015018;28;20001;-82
2021/07/02 00:57:35;;;;;;;;;;;12.60;99.90;;;;;;4997417;28;19944;-83
2021/07/02 01:00:00;;;;;;;;;;;12.60;99.90;;;;;;5014773;28;19913;-83
2021/07/02 01:02:26;;;;;;;;;;;12.60;99.90;;;;;;5014856;28;20360;-82
2021/07/02 01:04:51;;;;;;;;;;;12.60;99.90;;;;;;4997237;28;19989;-82
2021/07/02 01:07:17;;;;;;;;;;;12.60;99.90;;;;;;4997004;28;19964;-83
2021/07/02 01:09:44;;;;;;;;;;;12.60;99.90;;;;;;5014829;28;19935;-83
2021/07/02 01:12:11;;;;;;;;;;;12.60;99.90;;;;;;4993076;28;19910;-83
2021/07/02 01:14:36;;;;;;;;;;;12.60;99.90;;;;;;5009784;28;20007;-83
2021/07/02 01:17:02;;;;;;;;;;;12.60;99.90;;;;;;4996786;28;20044;-83
2021/07/02 01:19:27;;;;;;;;;;;12.60;99.90;;;;;;5014513;28;19916;-82
2021/07/02 01:21:56;;;;;;;;;;;12.60;99.90;;;;;;5014423;28;19917;-83
2021/07/02 01:24:22;;;;;;;;;;;12.60;99.90;;;;;;5014508;28;19914;-83
2021/07/02 01:26:49;;;;;;;;;;;12.60;99.90;;;;;;4996739;28;19915;-83
2021/07/02 01:29:14;;;;;;;;;;;12.60;99.90;;;;;;4997196;28;19916;-83
2021/07/02 01:31:40;;;;;;;;;;;12.60;99.90;;;;;;5014610;28;19961;-83
2021/07/02 01:34:05;;;;;;;;;;;12.60;99.90;;;;;;4997486;28;20280;-82
2021/07/02 01:36:31;;;;;;;;;;;12.60;99.90;;;;;;4996382;28;20261;-82
2021/07/02 01:38:56;;;;;;;;;;;12.50;99.90;;;;;;5015091;28;20003;-83
2021/07/02 01:41:22;;;;;;;;;;;12.50;99.90;;;;;;5014357;28;19974;-83
2021/07/02 01:43:47;;;;;;;;;;;12.50;99.90;;;;;;5012241;28;19918;-83
2021/07/02 01:46:13;;;;;;;;;;;12.50;99.90;;;;;;4996470;28;19916;-83
2021/07/02 01:48:38;;;;;;;;;;;12.50;99.90;;;;;;4996642;28;20491;-83
2021/07/02 01:51:04;;;;;;;;;;;12.50;99.90;;;;;;5014403;28;19909;-83
2021/07/02 01:53:29;;;;;;;;;;;12.50;99.90;;;;;;5013862;28;19939;-83
2021/07/02 01:55:55;;;;;;;;;;;12.40;99.90;;;;;;5014028;28;19923;-83
2021/07/02 01:58:21;;;;;;;;;;;12.40;99.90;;;;;;4996013;28;19913;-83
2021/07/02 02:00:46;;;;;;;;;;;12.30;99.90;;;;;;5013709;28;19909;-83
2021/07/02 02:03:12;;;;;;;;;;;12.20;99.90;;;;;;4995904;28;19909;-83
2021/07/02 02:05:38;;;;;;;;;;;12.10;99.90;;;;;;5013665;28;19921;-83
2021/07/02 02:08:04;;;;;;;;;;;12.00;99.90;;;;;;4995567;28;19910;-83
2021/07/02 02:10:30;;;;;;;;;;;11.90;99.90;;;;;;4995661;28;19914;-83
2021/07/02 02:12:55;;;;;;;;;;;11.90;99.90;;;;;;4994780;28;19910;-83
2021/07/02 02:15:21;;;;;;;;;;;11.90;99.90;;;;;;5013184;28;19921;-83
2021/07/02 02:17:46;;;;;;;;;;;11.90;99.90;;;;;;4995510;28;19917;-83
2021/07/02 02:20:12;;;;;;;;;;;11.80;99.90;;;;;;5013173;28;19945;-83
2021/07/02 02:22:38;;;;;;;;;;;11.80;99.90;;;;;;4995758;28;20016;-83
2021/07/02 02:25:05;;;;;;;;;;;11.80;99.90;;;;;;4995881;28;19932;-83
2021/07/02 02:27:31;;;;;;;;;;;11.70;99.90;;;;;;4995690;28;19920;-83
2021/07/02 02:29:57;;;;;;;;;;;11.70;99.90;;;;;;5013561;28;19909;-82
2021/07/02 02:32:22;;;;;;;;;;;11.70;99.90;;;;;;4997638;28;19921;-83
2021/07/02 02:34:47;;;;;;;;;;;11.60;99.90;;;;;;5017404;28;19910;-83
2021/07/02 02:37:13;;;;;;;;;;;11.60;99.90;;;;;;4999510;28;20375;-83
2021/07/02 02:39:39;;;;;;;;;;;11.40;99.90;;;;;;5017671;28;19909;-83
2021/07/02 02:42:05;;;;;;;;;;;11.30;99.90;;;;;;5017154;28;19915;-83
2021/07/02 02:44:30;;;;;;;;;;;11.30;99.90;;;;;;4999604;28;20000;-83
2021/07/02 02:46:56;;;;;;;;;;;11.20;99.90;;;;;;4999034;28;19910;-83
2021/07/02 02:49:21;;;;;;;;;;;11.20;99.90;;;;;;5017090;28;19913;-83
2021/07/02 02:51:47;;;;;;;;;;;11.00;99.90;;;;;;4999379;28;19909;-84
2021/07/02 02:54:12;;;;;;;;;;;10.90;99.90;;;;;;4999219;28;19909;-83
2021/07/02 02:57:03;;;;;;;;;;;10.90;99.90;;;;;;4999145;28;19914;-83
2021/07/02 02:59:23;;;;;;;;;;;10.90;99.90;;;;;;5016428;28;19909;-83
2021/07/02 03:01:49;;;;;;;;;;;10.90;99.90;;;;;;4999122;28;20028;-83
2021/07/02 03:04:14;;;;;;;;;;;10.90;99.90;;;;;;4998635;28;19956;-83
2021/07/02 03:06:40;;;;;;;;;;;10.80;99.90;;;;;;5016041;28;19920;-83
2021/07/02 03:09:05;;;;;;;;;;;10.70;99.90;;;;;;5016106;28;19917;-83
2021/07/02 03:11:31;;;;;;;;;;;10.70;99.90;;;;;;5015815;28;20252;-81
2021/07/02 03:13:56;;;;;;;;;;;10.70;99.90;;;;;;4998640;28;19910;-82
2021/07/02 03:16:22;;;;;;;;;;;10.80;99.90;;;;;;4998186;28;19964;-82
2021/07/02 03:18:47;;;;;;;;;;;10.80;99.90;;;;;;4998780;28;19910;-82
2021/07/02 03:21:13;;;;;;;;;;;10.80;99.90;;;;;;4998923;28;20002;-82
2021/07/02 03:23:38;;;;;;;;;;;10.90;99.90;;;;;;4998679;28;19932;-83
2021/07/02 03:26:04;;;;;;;;;;;10.90;99.90;;;;;;5016218;28;20355;-82
2021/07/02 03:28:32;;;;;;;;;;;10.90;99.90;;;;;;5016231;28;19909;-82
2021/07/02 03:30:58;;;;;;;;;;;10.90;99.90;;;;;;4998523;28;20280;-82
2021/07/02 03:33:23;;;;;;;;;;;10.90;99.90;;;;;;4998459;28;19910;-82
2021/07/02 03:35:49;;;;;;;;;;;10.90;99.90;;;;;;5015760;28;20071;-83
2021/07/02 03:38:14;;;;;;;;;;;10.90;99.90;;;;;;5015446;28;19909;-83
2021/07/02 03:40:39;;;;;;;;;;;10.90;99.90;;;;;;4998575;28;19920;-82
2021/07/02 03:43:05;;;;;;;;;;;10.80;99.90;;;;;;4997996;28;20388;-83
2021/07/02 03:45:30;;;;;;;;;;;10.90;99.90;;;;;;4997525;28;20004;-82
2021/07/02 03:47:56;;;;;;;;;;;10.80;99.90;;;;;;4998016;28;20371;-83
2021/07/02 03:50:23;;;;;;;;;;;10.80;99.90;;;;;;5016286;28;19910;-83
2021/07/02 03:52:48;;;;;;;;;;;10.80;99.90;;;;;;4998477;28;20012;-82
2021/07/02 03:55:14;;;;;;;;;;;10.80;99.90;;;;;;4997982;28;19944;-83
2021/07/02 03:57:40;;;;;;;;;;;10.80;99.90;;;;;;4997932;28;19917;-82
2021/07/02 04:00:06;;;;;;;;;;;10.80;99.90;;;;;;4998455;28;19917;-83
2021/07/02 04:02:32;;;;;;;;;;;10.80;99.90;;;;;;4998026;28;20398;-83
2021/07/02 04:04:58;;;;;;;;;;;10.80;99.90;;;;;;4997739;28;19910;-83
2021/07/02 04:07:24;;;;;;;;;;;10.90;99.90;;;;;;4997416;28;19980;-82
2021/07/02 04:09:50;;;;;;;;;;;10.90;99.90;;;;;;4997664;28;19936;-83
2021/07/02 04:12:16;;;;;;;;;;;11.00;99.90;;;;;;4994170;28;20376;-84
2021/07/02 04:14:41;;;;;;;;;;;11.10;99.90;;;;;;4994487;28;20295;-82
2021/07/02 04:17:07;;;;;;;;;;;11.20;99.90;;;;;;4997250;28;19921;-82
2021/07/02 04:19:32;;;;;;;;;;;11.20;99.90;;;;;;5015604;28;19909;-82
2021/07/02 04:21:58;;;;;;;;;;;11.30;99.90;;;;;;4998351;28;20434;-83
2021/07/02 04:24:26;;;;;;;;;;;11.30;99.90;;;;;;5015483;28;20338;-82
2021/07/02 04:26:52;;;;;;;;;;;11.40;99.90;;;;;;5015133;28;20001;-82
2021/07/02 04:29:18;;;;;;;;;;;11.40;99.90;;;;;;5014823;28;19956;-82
2021/07/02 04:31:43;;;;;;;;;;;11.40;99.90;;;;;;5014765;28;20335;-82
2021/07/02 04:34:09;;;;;;;;;;;11.40;99.90;;;;;;4997539;28;19916;-82
2021/07/02 04:36:35;;;;;;;;;;;11.50;99.90;;;;;;5014554;28;19975;-82
2021/07/02 04:39:00;;;;;;;;;;;11.40;99.90;;;;;;4997481;28;19913;-82
2021/07/02 04:41:26;;;;;;;;;;;11.50;99.90;;;;;;5014796;28;20379;-83
2021/07/02 04:43:51;;;;;;;;;;;11.60;99.90;;;;;;5014693;28;19913;-83
2021/07/02 04:46:17;;;;;;;;;;;11.60;99.90;;;;;;4996514;28;19909;-83
2021/07/02 04:48:43;;;;;;;;;;;11.60;99.90;;;;;;5013719;28;20008;-83
2021/07/02 04:51:08;;;;;;;;;;;11.70;99.90;;;;;;4996961;28;19909;-83
2021/07/02 04:53:34;;;;;;;;;;;11.70;99.90;;;;;;5015035;28;19909;-82
2021/07/02 04:55:59;;;;;;;;;;;11.70;99.90;;;;;;4997319;28;19971;-82
2021/07/02 04:58:25;;;;;;;;;;;11.70;99.90;;;;;;5014122;28;20336;-82
2021/07/02 05:00:50;;;;;;;;;;;11.70;99.90;;;;;;4997229;28;19913;-82
2021/07/02 05:03:16;;;;;;;;;;;11.80;99.90;;;;;;4997219;28;19910;-83
2021/07/02 05:05:41;;;;;;;;;;;11.80;99.90;;;;;;4997369;28;19945;-82
2021/07/02 05:08:08;;;;;;;;;;;11.90;99.90;;;;;;5014554;28;19956;-83
2021/07/02 05:10:34;;;;;;;;;;;12.00;99.90;;;;;;4996951;28;19910;-82
2021/07/02 05:13:00;;;;;;;;;;;12.00;99.90;;;;;;4995815;28;19918;-82
2021/07/02 05:15:26;;;;;;;;;;;12.10;99.90;;;;;;4996118;28;20425;-82
2021/07/02 05:17:51;;;;;;;;;;;12.20;99.90;;;;;;5013826;28;19916;-82
2021/07/02 05:20:17;;;;;;;;;;;12.40;99.90;;;;;;4996344;28;19917;-83
2021/07/02 05:22:42;;;;;;;;;;;12.50;99.90;;;;;;4996406;28;19913;-82
2021/07/02 05:25:08;;;;;;;;;;;12.70;99.90;;;;;;4996272;28;19917;-83
2021/07/02 05:27:33;;;;;;;;;;;12.90;99.90;;;;;;5013580;28;19913;-82
2021/07/02 05:29:59;;;;;;;;;;;13.10;99.90;;;;;;4996188;28;19913;-82
2021/07/02 05:32:25;;;;;;;;;;;13.30;99.90;;;;;;4996048;28;19916;-82
2021/07/02 05:34:50;;;;;;;;;;;13.50;99.90;;;;;;4999745;28;19914;-82
2021/07/02 05:37:16;;;;;;;;;;;13.70;99.90;;;;;;5012970;28;19913;-83
2021/07/02 05:39:41;;;;;;;;;;;14.00;99.90;;;;;;4995759;28;20476;-82
2021/07/02 05:42:07;;;;;;;;;;;14.20;99.90;;;;;;5015533;28;19956;-83
2021/07/02 05:44:32;;;;;;;;;;;14.50;99.90;;;;;;5012630;28;20342;-84
2021/07/02 05:46:58;;;;;;;;;;;14.90;99.90;;;;;;5012916;28;19910;-83
2021/07/02 05:49:23;;;;;;;;;;;15.20;99.90;;;;;;4994151;28;19910;-84
2021/07/02 05:51:49;;;;;;;;;;;15.40;99.90;;;;;;4995356;28;19914;-83
2021/07/02 05:54:15;;;;;;;;;;;15.70;99.90;;;;;;5010232;28;19909;-83
2021/07/02 05:56:40;;;;;;;;;;;16.10;99.90;;;;;;5007491;28;19918;-83
2021/07/02 05:59:06;;;;;;;;;;;16.40;99.90;;;;;;5000973;28;20292;-83
2021/07/02 06:01:31;;;;;;;;;;;16.60;99.90;;;;;;5002836;28;19909;-83
2021/07/02 06:03:57;;;;;;;;;;;16.90;99.90;;;;;;5011310;28;20384;-83
2021/07/02 06:06:22;;;;;;;;;;;17.30;99.90;;;;;;5009989;28;19916;-83
2021/07/02 06:08:50;;;;;;;;;;;17.50;99.90;;;;;;4995592;28;19916;-84
2021/07/02 06:11:15;;;;;;;;;;;17.70;99.90;;;;;;4995741;28;20399;-84
2021/07/02 06:13:41;;;;;;;;;;;18.00;99.90;;;;;;5012523;28;19909;-84
2021/07/02 06:16:06;;;;;;;;;;;18.20;99.90;;;;;;5011709;28;19962;-83
2021/07/02 06:18:32;;;;;;;;;;;18.40;99.90;;;;;;4994326;28;19909;-83
2021/07/02 06:20:58;;;;;;;;;;;18.60;99.90;;;;;;4993776;28;19910;-83
2021/07/02 06:23:24;;;;;;;;;;;18.80;99.90;;;;;;4994421;28;19910;-83
2021/07/02 06:25:50;;;;;;;;;;;19.00;99.90;;;;;;5006260;28;19909;-82
2021/07/02 06:28:16;;;;;;;;;;;19.40;99.90;;;;;;5005490;28;19909;-83
2021/07/02 06:30:42;;;;;;;;;;;19.70;99.90;;;;;;5011006;28;20411;-84
2021/07/02 06:33:07;;;;;;;;;;;20.10;99.90;;;;;;5003126;28;19909;-83
2021/07/02 06:35:33;;;;;;;;;;;20.50;99.90;;;;;;4994319;28;19975;-83
2021/07/02 06:37:58;;;;;;;;;;;20.80;99.90;;;;;;4993441;28;19910;-83
2021/07/02 06:40:24;;;;;;;;;;;20.90;99.90;;;;;;5011536;28;20396;-84
2021/07/02 06:42:50;;;;;;;;;;;20.90;99.90;;;;;;4997276;28;20335;-84
2021/07/02 06:45:16;;;;;;;;;;;20.70;99.90;;;;;;4997258;28;20385;-84
2021/07/02 06:47:49;;;;;;;;;;;20.50;99.90;;;;;;5001764;28;20300;-84
2021/07/02 06:50:14;;;;;;;;;;;20.60;99.90;;;;;;5011659;28;19916;-83
2021/07/02 06:52:40;;;;;;;;;;;20.80;99.90;;;;;;4995023;28;19913;-84
2021/07/02 06:55:05;;;;;;;;;;;21.00;99.90;;;;;;4991194;28;19910;-84
2021/07/02 06:57:31;;;;;;;;;;;21.40;99.90;;;;;;4989421;28;19921;-84
2021/07/02 07:00:02;;;;;;;;;;;21.70;99.90;;;;;;5008522;28;19910;-84
2021/07/02 07:02:27;;;;;;;;;;;22.00;99.90;;;;;;5008891;28;20383;-84
2021/07/02 07:04:53;;;;;;;;;;;22.40;99.90;;;;;;5010409;28;19910;-85
2021/07/02 07:07:18;;;;;;;;;;;22.80;99.90;;;;;;4993767;28;20268;-85
2021/07/02 07:09:44;;;;;;;;;;;23.10;99.90;;;;;;5006307;28;19916;-84
2021/07/02 07:12:09;;;;;;;;;;;23.40;99.90;;;;;;5009843;28;20379;-84
2021/07/02 07:14:35;;;;;;;;;;;23.20;99.90;;;;;;5010409;28;19952;-83
2021/07/02 07:17:02;;;;;;;;;;;22.90;99.90;;;;;;5010077;28;19965;-85
2021/07/02 07:19:28;;;;;;;;;;;22.60;99.90;;;;;;5012942;28;20371;-84
2021/07/02 07:21:54;;;;;;;;;;;22.60;99.90;;;;;;5004171;28;19996;-83
2021/07/02 07:24:20;;;;;;;;;;;22.70;99.90;;;;;;5003154;28;20012;-84
2021/07/02 07:26:45;;;;;;;;;;;22.30;99.00;;;;;;4999504;28;19932;-85
2021/07/02 07:29:11;;;;;;;;;;;22.50;99.90;;;;;;5013934;28;20004;-85
2021/07/02 07:31:37;;;;;;;;;;;22.70;99.50;;;;;;5004340;28;19917;-84
2021/07/02 07:34:04;;;;;;;;;;;22.60;99.20;;;;;;4996852;28;19945;-84
2021/07/02 07:36:31;;;;;;;;;;;22.50;99.90;;;;;;5013550;28;19914;-85
2021/07/02 07:38:56;;;;;;;;;;;22.80;99.50;;;;;;5000796;28;20379;-85
2021/07/02 07:41:23;;;;;;;;;;;22.90;98.20;;;;;;5006092;28;19909;-85
2021/07/02 07:43:49;;;;;;;;;;;22.70;98.10;;;;;;5005142;28;20000;-85
2021/07/02 07:46:14;;;;;;;;;;;22.30;98.80;;;;;;5013500;28;19995;-84
2021/07/02 07:48:40;;;;;;;;;;;21.80;99.60;;;;;;5010268;28;19913;-84
2021/07/02 07:53:49;;;;;;;;;;;20.60;99.90;;;;;;5015006;28;20386;-84
2021/07/02 07:56:15;;;;;;;;;;;20.30;99.90;;;;;;5013648;28;20004;-85
2021/07/02 07:58:40;;;;;;;;;;;20.40;99.90;;;;;;5014258;28;19925;-83
2021/07/02 08:01:06;;;;;;;;;;;20.50;99.90;;;;;;4996227;28;19956;-85
2021/07/02 08:03:31;;;;;;;;;;;20.50;99.90;;;;;;4995466;28;20303;-85
2021/07/02 08:05:57;;;;;;;;;;;20.40;99.90;;;;;;5013408;28;19953;-85
2021/07/02 08:08:22;;;;;;;;;;;20.50;99.90;;;;;;5008325;28;19921;-84
2021/07/02 08:10:49;;;;;;;;;;;20.50;99.90;;;;;;4996694;28;20390;-84
2021/07/02 08:13:15;;;;;;;;;;;20.50;99.90;;;;;;5014091;28;19914;-85
2021/07/02 08:15:41;;;;;;;;;;;20.20;99.90;;;;;;4996438;28;19924;-84
2021/07/02 08:18:06;;;;;;;;;;;19.90;99.90;;;;;;5013760;28;20407;-85
2021/07/02 08:20:32;;;;;;;;;;;19.90;99.90;;;;;;4996137;28;19918;-84
2021/07/02 08:22:57;;;;;;;;;;;20.50;99.90;;;;;;5013715;28;19967;-84
2021/07/02 08:25:23;;;;;;;;;;;21.10;99.90;;;;;;4996745;28;20011;-83
2021/07/02 08:30:32;;;;;;;;;;;21.80;98.80;;;;;;5011931;28;20056;-84
2021/07/02 08:32:58;;;;;;;;;;;21.90;99.90;;;;;;5013587;28;19952;-84
2021/07/02 08:35:23;;;;;;;;;;;22.30;99.60;;;;;;5013501;28;20065;-84
2021/07/02 08:37:51;;;;;;;;;;;22.10;98.70;;;;;;5010687;28;19936;-85
2021/07/02 08:40:17;;;;;;;;;;;22.10;99.90;;;;;;5013678;28;20012;-84
2021/07/02 08:42:43;;;;;;;;;;;22.30;99.70;;;;;;5012844;28;20052;-84
2021/07/02 08:45:08;;;;;;;;;;;22.80;99.90;;;;;;5013314;28;19910;-84
2021/07/02 08:47:34;;;;;;;;;;;23.30;99.20;;;;;;4995615;28;20356;-84
2021/07/02 08:50:00;;;;;;;;;;;23.60;97.20;;;;;;5002039;28;19913;-84
2021/07/02 08:52:26;;;;;;;;;;;23.60;97.80;;;;;;4999018;28;20000;-84
2021/07/02 08:54:51;;;;;;;;;;;23.90;97.80;;;;;;4998023;28;19960;-86
2021/07/02 08:57:17;;;;;;;;;;;24.20;96.50;;;;;;4998787;28;20277;-85
2021/07/02 08:59:42;;;;;;;;;;;24.00;97.00;;;;;;5012132;28;20363;-84
2021/07/02 09:02:25;;;;;;;;;;;23.90;96.90;;;;;;5001757;28;19916;-85
2021/07/02 09:04:50;;;;;;;;;;;23.90;95.20;;;;;;4994689;28;19921;-85
2021/07/02 09:07:18;;;;;;;;;;;24.30;97.80;;;;;;4995022;28;19909;-84
2021/07/02 09:09:51;;;;;;;;;;;24.50;94.80;;;;;;5013390;28;19963;-85
2021/07/02 09:12:18;;;;;;;;;;;24.40;93.60;;;;;;5009346;28;19956;-84
2021/07/02 09:14:57;;;;;;;;;;;23.90;93.20;;;;;;5012482;28;19910;-85
2021/07/02 09:17:24;;;;;;;;;;;23.70;94.50;;;;;;4997189;28;19948;-84
2021/07/02 09:20:01;;;;;;;;;;;23.70;93.60;;;;;;4995375;28;19996;-84
2021/07/02 09:22:26;;;;;;;;;;;23.00;93.40;;;;;;4993305;28;19932;-85
2021/07/02 09:24:52;;;;;;;;;;;22.60;94.90;;;;;;5012680;28;19909;-84
2021/07/02 09:27:22;;;;;;;;;;;22.50;95.10;;;;;;4995205;28;20394;-84
2021/07/02 09:30:14;;;;;;;;;;;22.70;96.00;;;;;;5009912;28;19956;-84
2021/07/02 09:32:50;;;;;;;;;;;23.20;96.60;;;;;;5007945;28;19917;-84
2021/07/02 09:35:17;;;;;;;;;;;23.70;90.40;;;;;;4994643;28;19916;-85
2021/07/02 09:37:45;;;;;;;;;;;23.60;91.20;;;;;;5005937;28;20326;-86
2021/07/02 09:40:13;;;;;;;;;;;23.60;91.90;;;;;;4994343;28;20495;-85
2021/07/02 09:42:39;;;;;;;;;;;23.70;91.50;;;;;;4992226;28;19929;-84
2021/07/02 09:45:06;;;;;;;;;;;23.40;90.50;;;;;;4994318;28;20284;-86
2021/07/02 09:47:32;;;;;;;;;;;23.10;94.20;;;;;;4987844;28;20327;-85
2021/07/02 09:50:12;;;;;;;;;;;23.30;93.80;;;;;;5010476;28;19910;-84
2021/07/02 09:52:45;;;;;;;;;;;23.80;95.20;;;;;;4995078;28;19917;-84
2021/07/02 09:55:12;;;;;;;;;;;24.60;94.70;;;;;;4987997;28;20008;-83
2021/07/02 09:57:37;;;;;;;;;;;25.00;92.90;;;;;;4993615;28;19920;-84
2021/07/02 10:00:07;;;;;;;;;;;24.90;92.70;;;;;;5011818;28;19909;-85
2021/07/02 10:02:32;;;;;;;;;;;24.50;92.10;;;;;;4994245;28;19910;-85
2021/07/02 10:04:58;;;;;;;;;;;24.20;92.60;;;;;;5000044;28;19932;-85
2021/07/02 10:07:25;;;;;;;;;;;24.30;93.20;;;;;;4991951;28;19917;-85
2021/07/02 10:09:50;;;;;;;;;;;24.70;91.40;;;;;;5011180;28;19910;-85
2021/07/02 10:12:17;;;;;;;;;;;25.10;92.00;;;;;;5012472;28;19910;-85
2021/07/02 10:14:42;;;;;;;;;;;25.30;86.80;;;;;;4996771;28;19909;-86
2021/07/02 10:17:08;;;;;;;;;;;25.70;90.80;;;;;;4993134;28;20400;-86
2021/07/02 10:19:34;;;;;;;;;;;26.00;88.40;;;;;;5011983;28;20290;-86
2021/07/02 10:22:00;;;;;;;;;;;26.20;91.40;;;;;;4990897;28;19918;-86
2021/07/02 10:24:26;;;;;;;;;;;25.90;84.30;;;;;;4994685;28;20442;-85
2021/07/02 10:26:52;;;;;;;;;;;25.90;84.10;;;;;;4994131;28;19910;-85
2021/07/02 10:29:18;;;;;;;;;;;25.90;86.20;;;;;;5012157;28;19960;-85
2021/07/02 10:31:43;;;;;;;;;;;25.50;87.70;;;;;;5011832;28;19917;-85
2021/07/02 10:34:09;;;;;;;;;;;25.20;82.10;;;;;;5000440;28;19916;-86
2021/07/02 10:36:38;;;;;;;;;;;24.90;85.30;;;;;;4993235;28;19913;-86
2021/07/02 10:39:03;;;;;;;;;;;25.10;93.50;;;;;;5011233;28;19949;-86
2021/07/02 10:41:32;;;;;;;;;;;25.60;91.40;;;;;;5011924;28;19960;-86
2021/07/02 10:44:03;;;;;;;;;;;26.10;92.30;;;;;;5011651;28;19910;-85
2021/07/02 10:46:28;;;;;;;;;;;26.60;87.40;;;;;;5011427;28;19964;-85
2021/07/02 10:48:55;;;;;;;;;;;26.60;80.80;;;;;;5012064;28;19910;-85
2021/07/02 10:51:35;;;;;;;;;;;26.30;82.50;;;;;;4996726;28;19961;-85
2021/07/02 10:54:23;;;;;;;;;;;25.70;80.30;;;;;;4988345;28;20210;-85
2021/07/02 10:56:49;;;;;;;;;;;24.70;80.80;;;;;;5012085;28;19914;-85
2021/07/02 10:59:15;;;;;;;;;;;24.00;86.40;;;;;;4998132;28;19916;-85
2021/07/02 11:01:59;;;;;;;;;;;24.00;89.70;;;;;;5015792;28;19952;-85
2021/07/02 11:04:34;;;;;;;;;;;24.50;91.00;;;;;;5013834;28;19956;-85
2021/07/02 11:07:03;;;;;;;;;;;25.30;80.90;;;;;;4996372;28;19917;-86
2021/07/02 11:09:54;;;;;;;;;;;25.90;90.40;;;;;;5015537;28;20370;-86
2021/07/02 11:12:35;;;;;;;;;;;26.50;88.00;;;;;;4997546;28;19909;-86
2021/07/02 11:15:05;;;;;;;;;;;26.50;76.20;;;;;;5014909;28;19913;-84
2021/07/02 11:17:32;;;;;;;;;;;25.90;79.10;;;;;;5008726;28;19917;-84
2021/07/02 11:22:34;;;;;;;;;;;24.80;83.10;;;;;;5015645;28;20364;-85
2021/07/02 11:25:00;;;;;;;;;;;24.80;84.40;;;;;;4995130;28;19920;-85
2021/07/02 11:27:34;;;;;;;;;;;24.40;78.30;;;;;;5014222;28;20338;-84
2021/07/02 11:30:02;;;;;;;;;;;24.30;77.50;;;;;;5014874;28;19914;-84
2021/07/02 11:32:31;;;;;;;;;;;24.20;79.10;;;;;;4996819;28;20311;-85
2021/07/02 11:35:35;;;;;;;;;;;23.80;88.50;;;;;;4996958;28;19910;-84
2021/07/02 11:38:06;;;;;;;;;;;23.60;82.60;;;;;;4936930;29;19922;-86
2021/07/02 11:40:33;;;;;;;;;;;24.00;80.70;;;;;;4937055;29;19950;-84
2021/07/02 11:42:59;;;;;;;;;;;23.60;80.50;;;;;;4987283;28;19992;-85
2021/07/02 11:45:44;;;;;;;;;;;23.50;84.20;;;;;;4996256;28;19913;-85
2021/07/02 11:48:30;;;;;;;;;;;23.90;85.00;;;;;;4994550;28;19917;-87
2021/07/02 11:51:07;;;;;;;;;;;24.50;90.00;;;;;;4995820;28;19948;-86
2021/07/02 11:53:37;;;;;;;;;;;24.70;81.20;;;;;;4995352;28;19909;-86
2021/07/02 11:56:10;;;;;;;;;;;24.90;83.50;;;;;;4995349;28;19964;-86
2021/07/02 11:58:46;;;;;;;;;;;25.10;87.70;;;;;;4997655;28;19956;-86
2021/07/02 12:01:40;;;;;;;;;;;25.40;79.30;;;;;;4993313;28;19996;-86
2021/07/02 12:04:10;;;;;;;;;;;25.80;80.60;;;;;;5011766;28;19910;-86
2021/07/02 12:06:41;;;;;;;;;;;25.40;82.60;;;;;;4996257;28;19980;-84
2021/07/02 12:09:13;;;;;;;;;;;25.10;85.20;;;;;;4998583;28;19921;-85
2021/07/02 12:11:42;;;;;;;;;;;25.10;87.80;;;;;;4995779;28;19953;-85
2021/07/02 12:14:08;;;;;;;;;;;25.10;81.70;;;;;;5007234;28;19909;-85
2021/07/02 12:16:34;;;;;;;;;;;25.50;80.70;;;;;;5013096;28;19914;-86
2021/07/02 12:19:00;;;;;;;;;;;25.70;80.70;;;;;;4999277;28;20309;-86
2021/07/02 12:21:29;;;;;;;;;;;26.10;86.40;;;;;;4994980;28;19968;-85
2021/07/02 12:23:55;;;;;;;;;;;26.50;78.60;;;;;;4997550;28;19921;-85
2021/07/02 12:26:22;;;;;;;;;;;26.30;75.20;;;;;;4995951;28;19913;-85
2021/07/02 12:28:59;;;;;;;;;;;26.30;81.10;;;;;;4998851;28;20000;-85
2021/07/02 12:31:32;;;;;;;;;;;26.50;87.00;;;;;;5013363;28;20346;-84
2021/07/02 12:33:58;;;;;;;;;;;26.80;81.00;;;;;;5004432;28;19910;-86
2021/07/02 12:36:25;;;;;;;;;;;27.20;82.50;;;;;;4995190;28;20375;-85
2021/07/02 12:38:59;;;;;;;;;;;27.50;80.50;;;;;;5012572;28;19952;-86
2021/07/02 12:41:25;;;;;;;;;;;27.80;80.60;;;;;;5015131;28;19977;-86
2021/07/02 12:43:50;;;;;;;;;;;27.40;78.10;;;;;;4993998;28;20367;-85
2021/07/02 12:46:16;;;;;;;;;;;26.90;76.10;;;;;;4999685;28;19996;-86
2021/07/02 12:48:42;;;;;;;;;;;26.30;77.60;;;;;;5009642;28;20000;-85
2021/07/02 12:51:08;;;;;;;;;;;26.10;78.10;;;;;;5009771;28;19913;-85
2021/07/02 12:56:18;;;;;;;;;;;25.60;80.30;;;;;;5006534;28;20402;-84
2021/07/02 12:58:44;;;;;;;;;;;25.40;80.10;;;;;;4996142;28;19909;-85
2021/07/02 13:01:09;;;;;;;;;;;25.40;80.70;;;;;;4996642;28;19909;-85
2021/07/02 13:03:35;;;;;;;;;;;25.00;84.40;;;;;;4995622;28;20407;-86
2021/07/02 13:06:15;;;;;;;;;;;24.70;82.70;;;;;;5013039;28;20391;-85
2021/07/02 13:08:41;;;;;;;;;;;24.40;82.60;;;;;;4995191;28;19991;-86
2021/07/02 13:11:19;;;;;;;;;;;23.90;83.90;;;;;;4993871;28;19913;-85
2021/07/02 13:13:45;;;;;;;;;;;23.90;81.80;;;;;;4997157;28;20432;-85
2021/07/02 13:16:10;;;;;;;;;;;24.00;85.90;;;;;;4993410;28;19949;-85
2021/07/02 13:18:36;;;;;;;;;;;24.20;84.40;;;;;;5001771;28;19909;-85
2021/07/02 13:21:08;;;;;;;;;;;24.20;82.60;;;;;;5013107;28;19960;-83
2021/07/02 13:23:35;;;;;;;;;;;24.10;84.60;;;;;;5007769;28;19910;-85
2021/07/02 13:26:04;;;;;;;;;;;24.30;86.50;;;;;;5012790;28;20331;-84
2021/07/02 13:28:30;;;;;;;;;;;24.60;84.90;;;;;;5008079;28;19909;-85
2021/07/02 13:30:56;;;;;;;;;;;24.90;82.30;;;;;;5002272;28;20467;-84
2021/07/02 13:33:22;;;;;;;;;;;24.90;79.70;;;;;;4997940;28;19949;-84
2021/07/02 13:35:47;;;;;;;;;;;24.90;87.20;;;;;;5012126;28;19913;-86
2021/07/02 13:38:17;;;;;;;;;;;25.10;82.90;;;;;;5011613;28;20279;-86
2021/07/02 13:40:42;;;;;;;;;;;25.30;84.10;;;;;;4995883;28;20333;-85
2021/07/02 13:43:14;;;;;;;;;;;25.50;78.70;;;;;;5000429;28;19909;-85
2021/07/02 13:45:56;;;;;;;;;;;25.80;78.90;;;;;;5008701;28;19932;-85
2021/07/02 13:48:21;;;;;;;;;;;26.10;84.30;;;;;;4995188;28;19913;-85
2021/07/02 13:50:47;;;;;;;;;;;26.30;77.90;;;;;;4994378;28;20314;-85
2021/07/02 13:53:17;;;;;;;;;;;26.60;83.10;;;;;;5012325;28;19909;-85
2021/07/02 13:55:43;;;;;;;;;;;26.70;80.10;;;;;;4993779;28;20020;-85
2021/07/02 13:58:08;;;;;;;;;;;26.70;83.30;;;;;;5007891;28;19916;-85
2021/07/02 14:00:34;;;;;;;;;;;26.70;79.00;;;;;;4994522;28;19914;-85
2021/07/02 14:02:59;;;;;;;;;;;26.70;80.20;;;;;;5011514;28;20024;-85
2021/07/02 14:05:25;;;;;;;;;;;26.90;79.10;;;;;;5010339;28;19918;-86
2021/07/02 14:07:50;;;;;;;;;;;27.20;82.80;;;;;;5010476;28;19956;-85
2021/07/02 14:10:16;;;;;;;;;;;27.40;81.70;;;;;;5012319;28;19910;-85
2021/07/02 14:12:41;;;;;;;;;;;27.50;79.10;;;;;;4994016;28;19913;-85
2021/07/02 14:15:07;;;;;;;;;;;27.60;75.90;;;;;;5011275;28;19917;-85
2021/07/02 14:17:34;;;;;;;;;;;27.80;76.40;;;;;;5010740;28;19996;-85
2021/07/02 14:20:00;;;;;;;;;;;27.50;76.90;;;;;;5011063;28;19913;-85
2021/07/02 14:22:26;;;;;;;;;;;27.40;75.20;;;;;;4995026;28;19909;-85
2021/07/02 14:24:51;;;;;;;;;;;26.90;73.60;;;;;;4994919;28;19913;-85
2021/07/02 14:27:17;;;;;;;;;;;26.70;77.70;;;;;;4995072;28;19910;-86